createdAt,value
2022-11-15T00:00:12.011Z,70.38
2022-11-15T00:10:41.475Z,70.65
2022-11-15T00:21:09.697Z,70.48
2022-11-15T00:31:31.812Z,70.61
2022-11-15T00:41:53.680Z,70.51
2022-11-15T00:52:15.920Z,70.26
2022-11-15T01:02:40.428Z,70.25
2022-11-15T01:13:02.286Z,70.35
2022-11-15T01:23:24.141Z,70.54
2022-11-15T01:33:49.229Z,70.58
2022-11-15T01:44:43.666Z,70.85
2022-11-15T01:55:12.667Z,70.90
2022-11-15T02:05:38.173Z,71.15
2022-11-15T02:16:36.891Z,71.26
2022-11-15T02:27:20.542Z,71.51
2022-11-15T02:37:58.849Z,71.59
2022-11-15T02:48:25.548Z,71.77
2022-11-15T02:59:20.088Z,72.17
2022-11-15T03:09:49.002Z,72.09
2022-11-15T03:20:15.557Z,71.99
2022-11-15T03:30:41.267Z,72.09
2022-11-15T03:41:14.865Z,72.01
2022-11-15T03:51:37.223Z,72.17
2022-11-15T04:01:59.272Z,71.90
2022-11-15T04:12:34.274Z,71.94
2022-11-15T04:23:19.542Z,72.15
2022-11-15T04:33:41.603Z,72.10
2022-11-15T04:44:03.635Z,72.41
2022-11-15T04:54:27.005Z,72.30
2022-11-15T05:04:48.987Z,72.55
2022-11-15T05:15:11.133Z,72.67
2022-11-15T05:25:33.535Z,72.71
2022-11-15T05:36:06.692Z,73.05
2022-11-15T05:46:29.462Z,73.02
2022-11-15T05:56:51.734Z,72.97
2022-11-15T06:07:16.168Z,73.11
2022-11-15T06:17:38.315Z,73.09
2022-11-15T06:28:02.344Z,73.59
2022-11-15T06:38:27.569Z,73.64
2022-11-15T06:48:56.566Z,73.79
2022-11-15T06:59:18.268Z,73.75
2022-11-15T07:09:40.353Z,74.05
2022-11-15T07:20:02.488Z,74.21
2022-11-15T07:30:27.351Z,73.82
2022-11-15T07:40:59.906Z,74.17
2022-11-15T07:51:21.825Z,74.31
2022-11-15T08:01:43.857Z,73.80
2022-11-15T08:12:06.803Z,73.84
2022-11-15T08:22:29.066Z,73.93
2022-11-15T08:32:54.408Z,73.94
2022-11-15T08:43:16.185Z,73.54
2022-11-15T08:53:39.117Z,72.97
2022-11-15T09:04:02.501Z,72.65
2022-11-15T09:14:26.389Z,72.38
2022-11-15T09:24:48.333Z,72.39
2022-11-15T09:35:10.209Z,71.83
2022-11-15T09:46:13.674Z,71.69
2022-11-15T09:56:43.323Z,71.65
2022-11-15T10:07:14.373Z,71.89
2022-11-15T10:17:24.581Z,71.78
2022-11-15T10:27:28.058Z,71.49
2022-11-15T10:37:33.991Z,71.57
2022-11-15T10:47:39.709Z,71.15
2022-11-15T10:57:51.716Z,71.82
2022-11-15T11:08:01.793Z,72.32
2022-11-15T11:18:29.650Z,72.83
2022-11-15T11:28:42.366Z,72.63
2022-11-15T11:39:01.281Z,72.11
2022-11-15T11:49:22.814Z,71.89
2022-11-15T11:59:35.809Z,72.02
2022-11-15T12:10:00.209Z,72.10
2022-11-15T12:20:09.127Z,72.29
2022-11-15T12:30:16.702Z,72.77
2022-11-15T12:40:47.530Z,72.65
2022-11-15T12:50:56.685Z,73.07
2022-11-15T13:01:00.141Z,73.23
2022-11-15T13:11:49.375Z,73.58
2022-11-15T13:22:12.884Z,73.34
2022-11-15T13:32:21.764Z,73.35
2022-11-15T13:42:29.907Z,73.14
2022-11-15T13:52:38.017Z,72.57
2022-11-15T14:02:41.363Z,72.20
2022-11-15T14:12:52.582Z,72.20
2022-11-15T14:23:02.060Z,72.28
2022-11-15T14:33:30.716Z,73.03
2022-11-15T14:43:34.115Z,73.29
2022-11-15T14:53:39.019Z,73.71
2022-11-15T15:03:42.441Z,74.23
2022-11-15T15:13:45.695Z,74.11
2022-11-15T15:23:49.012Z,74.34
2022-11-15T15:33:52.186Z,74.58
2022-11-15T15:43:55.399Z,74.86
2022-11-15T15:53:59.247Z,75.26
2022-11-15T16:04:02.539Z,75.72
2022-11-15T16:14:05.808Z,75.44
2022-11-15T16:24:09.078Z,75.45
2022-11-15T16:34:12.293Z,75.72
2022-11-15T17:09:28.645Z,75.10
2022-11-15T17:31:17.250Z,74.94
2022-11-15T17:41:21.774Z,75.24
2022-11-15T17:51:25.129Z,75.44
2022-11-15T18:01:34.002Z,75.56
2022-11-15T18:11:40.348Z,75.73
2022-11-15T18:22:35.510Z,75.52
2022-11-15T18:32:39.072Z,75.29
2022-11-15T18:42:44.354Z,75.65
2022-11-15T18:52:47.808Z,75.83
2022-11-15T19:02:55.889Z,75.71
2022-11-15T19:12:59.327Z,75.71
2022-11-15T19:23:02.727Z,75.98
2022-11-15T19:33:06.031Z,76.12
2022-11-15T19:43:10.683Z,76.43
2022-11-15T19:53:14.669Z,76.56
2022-11-15T20:03:18.350Z,76.52
2022-11-15T20:13:22.009Z,77.15
2022-11-15T20:23:27.336Z,77.80
2022-11-15T20:33:31.103Z,78.20
2022-11-15T20:43:37.716Z,78.62
2022-11-15T20:53:42.661Z,78.61
2022-11-15T21:03:46.315Z,79.14
2022-11-15T21:13:49.969Z,78.87
2022-11-15T21:23:53.515Z,78.92
2022-11-15T21:33:56.736Z,79.19
2022-11-15T21:44:04.902Z,78.71
2022-11-15T21:54:08.483Z,78.50
2022-11-15T22:04:12.438Z,78.38
2022-11-15T22:14:15.865Z,78.21
2022-11-15T22:24:19.323Z,77.89
2022-11-15T22:34:22.679Z,78.08
2022-11-15T22:44:25.985Z,78.73
2022-11-15T22:54:29.457Z,78.85
2022-11-15T23:04:33.070Z,79.02
2022-11-15T23:14:36.370Z,79.17
2022-11-15T23:24:39.645Z,79.78
2022-11-15T23:34:45.856Z,80.00
2022-11-15T23:44:53.057Z,79.90
2022-11-15T23:54:56.373Z,80.05
